createdAt,value
2019-01-23T00:05:28.792Z,98392.80
2019-01-23T00:08:01.194Z,98388.44
2019-01-23T00:10:31.593Z,98380.74
2019-01-23T00:19:34.914Z,98357.88
2019-01-23T00:28:17.699Z,98370.53
2019-01-23T00:31:00.941Z,98375.48
2019-01-23T00:34:05.336Z,98367.78
2019-01-23T00:36:56.466Z,98365.04
2019-01-23T00:40:00.281Z,98371.59
2019-01-23T00:42:50.210Z,98360.60
2019-01-23T00:45:51.161Z,98352.32
2019-01-23T00:48:42.869Z,98369.30
2019-01-23T00:51:40.501Z,98366.64
2019-01-23T00:54:08.433Z,98340.70
2019-01-23T00:59:59.850Z,98338.01
2019-01-23T01:02:30.111Z,98340.69
2019-01-23T01:05:00.396Z,98333.11
2019-01-23T01:07:49.662Z,98328.98
2019-01-23T01:10:20.114Z,98324.05
2019-01-23T01:12:51.190Z,98323.70
2019-01-23T01:15:23.346Z,98329.66
2019-01-23T01:18:13.063Z,98315.81
2019-01-23T01:21:02.350Z,98322.39
2019-01-23T01:26:42.077Z,98315.45
2019-01-23T01:29:31.355Z,98308.34
2019-01-23T01:32:20.579Z,98312.14
2019-01-23T01:34:50.855Z,98317.45
2019-01-23T01:37:39.766Z,98312.19
2019-01-23T01:40:30.213Z,98303.95
2019-01-23T01:43:23.517Z,98310.02
2019-01-23T01:45:53.894Z,98303.09
2019-01-23T01:48:24.191Z,98304.91
2019-01-23T01:51:16.390Z,98294.86
2019-01-23T01:56:54.633Z,98294.84
2019-01-23T01:59:24.876Z,98295.95
2019-01-23T02:01:55.242Z,98288.39
2019-01-23T02:04:25.549Z,98283.44
2019-01-23T02:10:06.272Z,98281.18
2019-01-23T02:12:36.573Z,98275.55
2019-01-23T02:15:08.750Z,98283.28
2019-01-23T02:21:08.162Z,98276.28
2019-01-23T02:23:38.719Z,98273.61
2019-01-23T02:26:08.988Z,98258.95
2019-01-23T02:28:58.258Z,98257.29
2019-01-23T02:32:09.813Z,98258.25
2019-01-23T02:35:01.191Z,98250.38
2019-01-23T02:37:31.696Z,98245.27
2019-01-23T02:40:01.982Z,98243.59
2019-01-23T02:42:51.364Z,98245.55
2019-01-23T02:45:32.451Z,98241.87
2019-01-23T02:48:21.671Z,98234.39
2019-01-23T02:50:51.891Z,98227.78
2019-01-23T02:53:22.211Z,98230.26
2019-01-23T02:56:11.421Z,98221.05
2019-01-23T02:58:41.591Z,98209.55
2019-01-23T03:04:23.058Z,98206.25
2019-01-23T03:07:14.109Z,98213.95
2019-01-23T03:09:44.334Z,98206.25
2019-01-23T03:17:55.861Z,98198.01
2019-01-23T03:20:26.063Z,98195.05
2019-01-23T03:22:56.349Z,98171.30
2019-01-23T03:25:47.416Z,98187.98
2019-01-23T03:28:17.641Z,98181.06
2019-01-23T03:30:49.641Z,98184.37
2019-01-23T03:33:38.862Z,98181.70
2019-01-23T03:36:09.161Z,98185.67
2019-01-23T03:38:39.485Z,98176.79
2019-01-23T03:41:29.569Z,98175.30
2019-01-23T03:47:04.221Z,98183.38
2019-01-23T03:49:34.448Z,98174.83
2019-01-23T03:52:04.896Z,98175.12
2019-01-23T03:55:06.060Z,98174.30
2019-01-23T03:57:26.965Z,98175.78
2019-01-23T03:59:59.803Z,98169.98
2019-01-23T04:02:30.971Z,98169.52
2019-01-23T04:05:01.247Z,98162.28
2019-01-23T04:07:50.512Z,98162.30
2019-01-23T04:13:28.659Z,98158.00
2019-01-23T04:16:18.016Z,98162.45
2019-01-23T04:19:07.292Z,98162.11
2019-01-23T04:21:37.644Z,98171.53
2019-01-23T04:24:08.446Z,98155.72
2019-01-23T04:26:57.605Z,98157.86
2019-01-23T04:30:07.096Z,98149.96
2019-01-23T04:32:56.332Z,98146.83
2019-01-23T04:35:26.701Z,98146.48
2019-01-23T04:41:05.738Z,98137.16
2019-01-23T04:43:35.963Z,98133.33
2019-01-23T04:46:06.865Z,98141.23
2019-01-23T04:48:56.059Z,98134.81
2019-01-23T04:52:03.959Z,98135.64
2019-01-23T04:54:34.154Z,98131.02
2019-01-23T04:57:04.448Z,98134.77
2019-01-23T05:02:42.631Z,98126.26
2019-01-23T05:05:12.937Z,98122.78
2019-01-23T05:08:02.164Z,98125.88
2019-01-23T05:10:32.330Z,98130.03
2019-01-23T05:13:02.655Z,98123.62
2019-01-23T05:15:53.313Z,98121.00
2019-01-23T05:18:42.574Z,98117.52
2019-01-23T05:21:31.761Z,98111.65
2019-01-23T05:24:02.000Z,98095.64
2019-01-23T05:26:51.995Z,98113.58
2019-01-23T05:29:43.074Z,98115.72
2019-01-23T05:32:13.698Z,98109.35
2019-01-23T05:37:53.324Z,98122.09
2019-01-23T05:40:23.588Z,98112.93
2019-01-23T05:45:34.235Z,98100.73
2019-01-23T05:48:04.637Z,98107.47
2019-01-23T05:50:54.612Z,98108.64
2019-01-23T05:56:45.165Z,98101.90
2019-01-23T05:59:54.709Z,98100.09
2019-01-23T06:03:01.460Z,98101.41
2019-01-23T06:05:19.130Z,98096.27
2019-01-23T06:08:08.676Z,98075.23
2019-01-23T06:10:38.918Z,98098.73
2019-01-23T06:13:09.356Z,98090.48
2019-01-23T06:15:58.515Z,98091.78
2019-01-23T06:21:51.924Z,98087.19
2019-01-23T06:24:22.136Z,98081.42
2019-01-23T06:26:53.605Z,98092.61
2019-01-23T06:29:55.131Z,98085.84
2019-01-23T06:32:26.343Z,98095.41
2019-01-23T06:34:56.591Z,98094.08
2019-01-23T06:37:26.922Z,98094.44
2019-01-23T06:39:58.069Z,98093.59
2019-01-23T06:42:28.331Z,98090.48
2019-01-23T06:44:58.591Z,98090.20
2019-01-23T06:47:47.527Z,98082.41
2019-01-23T06:50:38.663Z,98070.88
2019-01-23T06:53:29.868Z,98083.70
2019-01-23T06:56:04.232Z,98084.88
2019-01-23T06:58:36.395Z,98085.50
2019-01-23T07:01:07.465Z,98093.64
2019-01-23T07:06:39.785Z,98085.58
2019-01-23T07:09:10.796Z,98082.22
2019-01-23T07:11:41.346Z,98082.22
2019-01-23T07:14:11.649Z,98088.23
2019-01-23T07:16:52.893Z,98080.08
2019-01-23T07:19:43.913Z,98090.28
2019-01-23T07:25:27.442Z,98088.06
2019-01-23T07:28:17.512Z,98088.58
2019-01-23T07:31:26.971Z,98082.77
2019-01-23T07:34:16.254Z,98081.32
2019-01-23T07:40:16.209Z,98055.17
2019-01-23T07:45:45.900Z,98075.07
2019-01-23T07:51:05.257Z,98076.22
2019-01-23T07:57:04.780Z,98085.58
2019-01-23T07:59:34.977Z,98074.06
2019-01-23T08:02:08.161Z,98080.63
2019-01-23T08:04:58.409Z,98078.33
2019-01-23T08:10:41.308Z,98076.38
2019-01-23T08:13:30.897Z,98068.48
2019-01-23T08:16:25.383Z,98068.48
2019-01-23T08:19:05.954Z,98069.74
2019-01-23T08:21:55.979Z,98068.59
2019-01-23T08:24:26.218Z,98075.37
2019-01-23T08:27:37.142Z,98076.70
2019-01-23T08:30:07.797Z,98079.69
2019-01-23T08:32:55.156Z,98080.95
2019-01-23T08:35:16.845Z,98080.33
2019-01-23T08:37:48.188Z,98085.59
2019-01-23T08:40:18.512Z,98082.58
2019-01-23T08:42:48.832Z,98087.69
2019-01-23T08:46:01.544Z,98080.08
2019-01-23T08:48:31.700Z,98083.27
2019-01-23T08:51:23.166Z,98078.67
2019-01-23T08:54:12.352Z,98078.30
2019-01-23T08:59:50.487Z,98074.47
2019-01-23T09:11:25.531Z,98088.11
2019-01-23T09:13:55.707Z,98082.80
2019-01-23T09:19:44.520Z,98076.80
2019-01-23T09:22:14.820Z,98086.33
2019-01-23T09:24:47.642Z,98082.84
2019-01-23T09:27:37.262Z,98088.08
2019-01-23T09:37:03.245Z,98094.34
2019-01-23T09:43:27.378Z,98083.39
2019-01-23T09:46:38.123Z,98088.63
2019-01-23T09:49:46.371Z,98087.30
2019-01-23T09:52:54.674Z,98090.38
2019-01-23T09:55:25.101Z,98099.28
2019-01-23T09:58:14.370Z,98090.92
2019-01-23T10:00:59.760Z,98095.65
2019-01-23T10:03:46.571Z,98101.70
2019-01-23T10:06:27.864Z,98091.86
2019-01-23T10:09:17.945Z,98091.86
2019-01-23T10:11:53.942Z,98096.23
2019-01-23T10:14:44.302Z,98096.37
2019-01-23T10:17:54.041Z,98096.37
2019-01-23T10:20:43.400Z,98093.53
2019-01-23T10:23:32.363Z,98091.88
2019-01-23T10:29:03.581Z,98086.10
2019-01-23T10:31:55.243Z,98089.23
2019-01-23T10:37:56.488Z,98066.92
2019-01-23T10:43:37.972Z,98079.34
2019-01-23T10:46:27.171Z,98083.75
2019-01-23T10:49:16.404Z,98082.14
2019-01-23T10:51:50.222Z,98078.38
2019-01-23T10:54:20.450Z,98075.66
2019-01-23T10:57:25.406Z,98080.06
2019-01-23T10:59:43.233Z,98089.50
2019-01-23T11:02:13.601Z,98080.26
2019-01-23T11:05:03.737Z,98081.31
2019-01-23T11:08:10.834Z,98079.98
2019-01-23T11:10:31.816Z,98092.81
2019-01-23T11:19:36.719Z,98078.85
2019-01-23T11:22:32.949Z,98057.88
2019-01-23T11:25:22.178Z,98082.56
2019-01-23T11:28:40.837Z,98073.31
2019-01-23T11:34:40.311Z,98069.91
2019-01-23T11:37:29.648Z,98065.97
2019-01-23T11:40:01.611Z,98067.08
2019-01-23T11:42:51.667Z,98077.15
2019-01-23T11:45:41.531Z,98061.84
2019-01-23T11:48:15.841Z,98070.42
2019-01-23T11:50:46.146Z,98057.33
2019-01-23T11:56:06.977Z,98059.77
2019-01-23T11:59:17.185Z,98061.55
2019-01-23T12:01:48.627Z,98066.73
2019-01-23T12:04:20.659Z,98071.02
2019-01-23T12:07:22.283Z,98070.52
2019-01-23T12:09:41.817Z,98067.45
2019-01-23T12:18:16.896Z,98071.77
2019-01-23T12:20:53.107Z,98082.32
2019-01-23T12:26:13.513Z,98073.56
2019-01-23T12:29:03.227Z,98079.53
2019-01-23T12:31:58.069Z,98076.64
2019-01-23T12:46:59.703Z,98087.97
2019-01-23T12:50:00.923Z,98080.41
2019-01-23T12:52:39.524Z,98074.65
2019-01-23T12:55:28.748Z,98065.56
2019-01-23T12:57:58.973Z,98084.51
2019-01-23T13:00:30.825Z,98079.39
2019-01-23T13:03:20.872Z,98086.22
2019-01-23T13:05:51.185Z,98086.56
2019-01-23T13:08:21.513Z,98083.00
2019-01-23T13:11:13.560Z,98081.68
2019-01-23T13:13:46.826Z,98089.74
2019-01-23T13:16:17.185Z,98091.61
2019-01-23T13:19:06.440Z,98087.16
2019-01-23T13:24:48.313Z,98095.23
2019-01-23T13:27:38.010Z,98086.03
2019-01-23T13:30:13.005Z,98086.03
2019-01-23T13:32:48.206Z,98087.94
2019-01-23T13:35:38.510Z,98092.14
2019-01-23T13:38:33.627Z,98088.75
2019-01-23T13:41:22.899Z,98097.55
2019-01-23T13:49:57.664Z,98094.00
2019-01-23T13:52:47.734Z,98093.79
2019-01-23T13:55:20.489Z,98099.38
2019-01-23T13:57:52.724Z,98102.05
2019-01-23T14:03:38.580Z,98099.62
2019-01-23T14:06:12.504Z,98106.64
2019-01-23T14:12:31.500Z,98100.44
2019-01-23T14:15:42.192Z,98113.98
2019-01-23T14:18:31.537Z,98102.10
2019-01-23T14:21:01.785Z,98101.42
2019-01-23T14:23:32.941Z,98117.63
2019-01-23T14:26:22.192Z,98110.06
2019-01-23T14:29:11.403Z,98102.64
2019-01-23T14:35:02.784Z,98111.34
2019-01-23T14:37:33.099Z,98114.22
2019-01-23T14:40:05.189Z,98115.04
2019-01-23T14:43:00.657Z,98116.66
2019-01-23T14:45:43.963Z,98119.48
2019-01-23T14:54:37.053Z,98130.97
2019-01-23T14:57:10.020Z,98134.18
2019-01-23T15:00:02.651Z,98131.09
2019-01-23T15:02:32.868Z,98137.86
2019-01-23T15:05:03.214Z,98134.19
2019-01-23T15:10:29.102Z,98146.50
2019-01-23T15:13:18.318Z,98148.95
2019-01-23T15:15:48.623Z,98153.73
2019-01-23T15:18:40.126Z,98152.42
2019-01-23T15:24:24.164Z,98152.57
2019-01-23T15:27:13.586Z,98159.54
2019-01-23T15:29:44.187Z,98157.39
2019-01-23T15:32:17.435Z,98167.61
2019-01-23T15:35:06.122Z,98172.05
2019-01-23T15:43:39.176Z,98178.00
2019-01-23T15:55:57.160Z,98183.24
2019-01-23T15:58:28.585Z,98191.34
2019-01-23T16:10:45.926Z,98201.41
2019-01-23T16:13:16.475Z,98208.23
2019-01-23T16:16:06.037Z,98209.67
2019-01-23T16:18:36.580Z,98193.25
2019-01-23T16:21:27.311Z,98222.89
2019-01-23T16:26:59.241Z,98216.46
2019-01-23T16:29:29.617Z,98223.05
2019-01-23T16:32:31.645Z,98217.27
2019-01-23T16:35:04.286Z,98219.89
2019-01-23T16:37:34.532Z,98222.19
2019-01-23T16:40:06.932Z,98228.11
2019-01-23T16:42:37.766Z,98235.20
2019-01-23T16:45:34.245Z,98222.88
2019-01-23T16:48:34.426Z,98228.83
2019-01-23T16:51:20.579Z,98242.45
2019-01-23T17:00:41.075Z,98246.87
2019-01-23T17:03:35.543Z,98254.27
2019-01-23T17:09:06.940Z,98261.69
2019-01-23T17:12:14.835Z,98259.57
2019-01-23T17:15:16.788Z,98251.66
2019-01-23T17:17:57.292Z,98265.34
2019-01-23T17:26:39.452Z,98273.73
2019-01-23T17:29:31.390Z,98275.91
2019-01-23T17:35:15.964Z,98293.23
2019-01-23T17:38:12.598Z,98291.72
2019-01-23T17:47:22.605Z,98295.16
2019-01-23T17:49:51.014Z,98297.33
2019-01-23T17:52:22.320Z,98300.61
2019-01-23T17:55:16.684Z,98304.86
2019-01-23T17:58:19.943Z,98305.54
2019-01-23T18:01:09.146Z,98309.67
2019-01-23T18:06:44.317Z,98323.52
2019-01-23T18:09:17.248Z,98321.39
2019-01-23T18:18:24.702Z,98332.25
2019-01-23T18:21:18.996Z,98332.25
2019-01-23T18:24:27.004Z,98343.45
2019-01-23T18:27:24.828Z,98308.53
2019-01-23T18:33:25.111Z,98344.14
2019-01-23T18:36:51.968Z,98349.77
2019-01-23T18:40:29.118Z,98350.41
2019-01-23T18:43:20.162Z,98357.86
2019-01-23T18:46:48.931Z,98364.27
2019-01-23T18:49:57.138Z,98362.47
2019-01-23T18:56:07.476Z,98367.23
2019-01-23T18:58:40.410Z,98374.18
2019-01-23T19:05:12.068Z,98383.41
2019-01-23T19:10:37.667Z,98384.87
2019-01-23T19:13:28.715Z,98379.77
2019-01-23T19:15:58.972Z,98385.22
2019-01-23T19:18:29.356Z,98385.05
2019-01-23T19:20:59.899Z,98386.05
2019-01-23T19:23:30.246Z,98383.23
2019-01-23T19:29:11.595Z,98382.25
2019-01-23T19:32:02.386Z,98378.78
2019-01-23T19:34:52.492Z,98384.87
2019-01-23T19:37:25.369Z,98384.87
2019-01-23T19:40:14.654Z,98384.56
2019-01-23T19:45:56.043Z,98389.84
2019-01-23T19:52:07.940Z,98388.33
2019-01-23T19:54:38.418Z,98395.10
2019-01-23T19:57:30.604Z,98403.84
2019-01-23T20:00:02.654Z,98396.91
2019-01-23T20:06:08.512Z,98411.45
2019-01-23T20:08:47.639Z,98413.09
2019-01-23T20:11:37.700Z,98411.61
2019-01-23T20:20:38.005Z,98427.75
2019-01-23T20:23:11.364Z,98422.81
2019-01-23T20:29:04.062Z,98431.52
2019-01-23T20:37:44.761Z,98437.94
2019-01-23T20:40:35.994Z,98444.07
2019-01-23T20:43:57.479Z,98444.08
2019-01-23T20:46:16.001Z,98444.41
2019-01-23T20:48:46.309Z,98430.55
2019-01-23T20:51:55.305Z,98456.30
2019-01-23T20:54:26.354Z,98456.30
2019-01-23T20:56:56.612Z,98461.39
2019-01-23T20:59:49.155Z,98466.84
2019-01-23T21:02:20.359Z,98461.55
2019-01-23T21:05:09.618Z,98463.20
2019-01-23T21:13:34.274Z,98469.30
2019-01-23T21:16:24.328Z,98469.14
2019-01-23T21:18:54.729Z,98466.18
2019-01-23T21:21:46.276Z,98473.75
2019-01-23T21:24:16.522Z,98472.76
2019-01-23T21:27:05.807Z,98475.25
2019-01-23T21:29:36.118Z,98476.89
2019-01-23T21:32:49.352Z,98479.03
2019-01-23T21:35:29.881Z,98482.49
2019-01-23T21:38:21.703Z,98488.19
2019-01-23T21:41:12.348Z,98486.55
2019-01-23T21:46:47.643Z,98479.59
2019-01-23T21:49:37.637Z,98497.14
2019-01-23T21:55:29.866Z,98497.13
2019-01-23T22:00:53.023Z,98502.52
2019-01-23T22:07:12.799Z,98505.70
2019-01-23T22:13:13.660Z,98511.48
2019-01-23T22:15:44.721Z,98513.31
2019-01-23T22:18:36.259Z,98520.40
2019-01-23T22:24:25.810Z,98515.30
2019-01-23T22:27:17.088Z,98522.87
2019-01-23T22:30:07.571Z,98524.53
2019-01-23T22:32:38.627Z,98534.41
2019-01-23T22:35:12.280Z,98538.34
2019-01-23T22:40:31.733Z,98546.89
2019-01-23T22:43:01.991Z,98544.08
2019-01-23T22:48:49.112Z,98547.72
2019-01-23T22:51:28.814Z,98544.30
2019-01-23T22:54:18.019Z,98550.35
2019-01-23T22:57:08.317Z,98552.48
2019-01-23T22:59:40.887Z,98552.80
2019-01-23T23:02:13.763Z,98548.47
2019-01-23T23:05:03.818Z,98569.46
2019-01-23T23:07:59.775Z,98569.46
2019-01-23T23:10:28.803Z,98577.19
2019-01-23T23:13:00.777Z,98577.19
2019-01-23T23:15:50.800Z,98584.27
2019-01-23T23:21:23.772Z,98584.49
2019-01-23T23:23:56.207Z,98576.01
2019-01-23T23:29:54.099Z,98587.30
2019-01-23T23:32:43.536Z,98604.08
2019-01-23T23:36:07.365Z,98611.55
2019-01-23T23:41:40.502Z,98595.07
2019-01-23T23:44:32.851Z,98595.07
2019-01-23T23:47:06.160Z,98614.03
2019-01-23T23:49:57.130Z,98617.95
2019-01-23T23:52:28.761Z,98621.59
